Zhanyi, China
Current Conditions -  °F | °C
As of 12:00 PM on Friday 19 Dec 2014 (Local Time) from ZPPP Reporting Station
Broken Clouds Broken Clouds  
Wind Chill: 41°   Ceiling: 2600
Heat Index: 45°   Visibility: 6mi
Dew Point: 34°   Wind: 7mph
Humidity: 66%   Direction: 300°WNW
Pressure: 30.42"   Gusts: NA
Location:  25.58°N, 103.83°E
Report Text: ZPPP 190400Z 30003MPS 260V330 9999 BKN026 07/01 Q1030 NOSIG
Loading
Personal Weather Stations






























Interactive Weather Map New forecast layout! Learn more

10-Day Weather Forecast

Advertisements
Track Severe Weather on mobile